Time;durP1;ratioP1;P1;durP2;ratioP2;P2;SDS_P1;SDS_P2;PMS_P1;PMS_P2;Temp;Humidity;BMP_temperature;BMP_pressure;BME280_temperature;BME280_humidity;BME280_pressure;Samples;Min_cycle;Max_cycle;Signal;HPM_P1;HPM_P2
2023/04/10 00:02:07;;;;;;;24.67;20.17;;;;;;;;;;5071684;28;20227;-54
2023/04/10 00:04:33;;;;;;;27.47;21.20;;;;;;;;;;5071658;28;20199;-55
2023/04/10 00:06:59;;;;;;;25.50;21.07;;;;;;;;;;5070573;28;20208;-54
2023/04/10 00:09:28;;;;;;;28.17;22.40;;;;;;;;;;5071695;28;20203;-55
2023/04/10 00:11:55;;;;;;;28.90;22.33;;;;;;;;;;5071411;28;20196;-56
2023/04/10 00:14:23;;;;;;;25.80;20.90;;;;;;;;;;5071577;28;20274;-55
2023/04/10 00:16:49;;;;;;;30.10;23.47;;;;;;;;;;5071469;28;20199;-54
2023/04/10 00:19:15;;;;;;;26.33;21.73;;;;;;;;;;5071450;28;20576;-55
2023/04/10 00:21:41;;;;;;;27.87;22.00;;;;;;;;;;5071278;28;20223;-55
2023/04/10 00:24:07;;;;;;;27.93;21.97;;;;;;;;;;5071505;28;20668;-55
2023/04/10 00:26:35;;;;;;;25.27;20.83;;;;;;;;;;5071481;28;20196;-55
2023/04/10 00:29:01;;;;;;;27.00;20.23;;;;;;;;;;5071257;28;20249;-55
2023/04/10 00:31:27;;;;;;;29.77;22.97;;;;;;;;;;5071332;28;20196;-54
2023/04/10 00:33:53;;;;;;;25.70;19.57;;;;;;;;;;5071300;28;20204;-55
2023/04/10 00:36:19;;;;;;;26.13;21.13;;;;;;;;;;5071333;28;20249;-55
2023/04/10 00:38:47;;;;;;;25.27;21.17;;;;;;;;;;5071181;28;20568;-54
2023/04/10 00:41:12;;;;;;;26.33;21.47;;;;;;;;;;5071348;28;20325;-55
2023/04/10 00:43:40;;;;;;;26.50;21.30;;;;;;;;;;5071172;28;20219;-55
2023/04/10 00:46:06;;;;;;;30.97;23.87;;;;;;;;;;5071162;28;20287;-55
2023/04/10 00:48:32;;;;;;;31.27;23.40;;;;;;;;;;5071169;28;20579;-55
2023/04/10 00:50:59;;;;;;;29.83;22.87;;;;;;;;;;5071185;28;20204;-55
2023/04/10 00:53:25;;;;;;;27.83;22.23;;;;;;;;;;5071119;28;20755;-55
2023/04/10 00:55:52;;;;;;;29.40;22.37;;;;;;;;;;5071086;28;20439;-55
2023/04/10 00:58:18;;;;;;;27.93;22.30;;;;;;;;;;5071091;28;20850;-54
2023/04/10 01:00:46;;;;;;;29.10;22.60;;;;;;;;;;5070969;28;20562;-55
2023/04/10 01:03:12;;;;;;;28.70;21.73;;;;;;;;;;5071177;28;20195;-55
2023/04/10 01:05:41;;;;;;;25.83;21.60;;;;;;;;;;5070999;28;20238;-55
2023/04/10 01:08:09;;;;;;;27.60;20.93;;;;;;;;;;5070960;28;20192;-55
2023/04/10 01:10:38;;;;;;;28.97;21.50;;;;;;;;;;5071032;28;20298;-55
2023/04/10 01:13:08;;;;;;;25.43;21.03;;;;;;;;;;5070864;28;20653;-55
2023/04/10 01:15:38;;;;;;;25.53;21.50;;;;;;;;;;5070890;28;20605;-55
2023/04/10 01:18:09;;;;;;;26.80;21.43;;;;;;;;;;5072642;28;20198;-55
2023/04/10 01:20:38;;;;;;;26.33;21.67;;;;;;;;;;5074482;28;20211;-55
2023/04/10 01:23:14;;;;;;;27.20;22.00;;;;;;;;;;5074293;28;20285;-54
2023/04/10 01:25:43;;;;;;;25.83;21.03;;;;;;;;;;5074496;28;20199;-55
2023/04/10 01:28:30;;;;;;;27.07;20.73;;;;;;;;;;5074333;28;20603;-55
2023/04/10 01:31:00;;;;;;;29.43;22.43;;;;;;;;;;5074332;28;20188;-55
2023/04/10 01:33:29;;;;;;;27.50;21.13;;;;;;;;;;5074100;28;20281;-55
2023/04/10 01:35:57;;;;;;;27.70;21.33;;;;;;;;;;5074092;28;20441;-55
2023/04/10 01:38:26;;;;;;;27.23;22.00;;;;;;;;;;5074307;28;20214;-54
2023/04/10 01:40:53;;;;;;;27.30;21.63;;;;;;;;;;5074086;28;20867;-55
2023/04/10 01:43:20;;;;;;;27.13;21.83;;;;;;;;;;5074055;28;20916;-55
2023/04/10 01:45:47;;;;;;;27.43;22.07;;;;;;;;;;5074266;28;20456;-55
2023/04/10 01:48:16;;;;;;;29.10;22.63;;;;;;;;;;5074557;28;20195;-54
2023/04/10 01:50:43;;;;;;;26.47;21.63;;;;;;;;;;5074083;28;20291;-55
2023/04/10 01:53:09;;;;;;;27.63;20.87;;;;;;;;;;5074078;28;20812;-54
2023/04/10 01:55:36;;;;;;;27.50;21.80;;;;;;;;;;5073899;28;20605;-55
2023/04/10 01:58:03;;;;;;;25.13;20.27;;;;;;;;;;5073741;28;20433;-55
2023/04/10 02:00:30;;;;;;;28.23;21.93;;;;;;;;;;5073960;28;21007;-55
2023/04/10 02:02:57;;;;;;;26.27;20.50;;;;;;;;;;5073666;28;20510;-55
2023/04/10 02:05:27;;;;;;;25.93;20.77;;;;;;;;;;5073826;28;20430;-55
2023/04/10 02:07:57;;;;;;;28.43;20.87;;;;;;;;;;5073713;28;20536;-55
2023/04/10 02:10:27;;;;;;;28.07;21.83;;;;;;;;;;5073753;28;20235;-55
2023/04/10 02:12:56;;;;;;;29.20;21.70;;;;;;;;;;5073573;28;20465;-55
2023/04/10 02:15:23;;;;;;;29.37;22.73;;;;;;;;;;5073724;28;20621;-54
2023/04/10 02:17:49;;;;;;;27.10;22.03;;;;;;;;;;5073502;28;20513;-55
2023/04/10 02:20:15;;;;;;;27.50;21.73;;;;;;;;;;5073639;28;20438;-55
2023/04/10 02:22:43;;;;;;;27.17;21.73;;;;;;;;;;5073375;28;20478;-54
2023/04/10 02:25:09;;;;;;;29.43;22.33;;;;;;;;;;5073364;28;20438;-54
2023/04/10 02:27:36;;;;;;;28.17;22.43;;;;;;;;;;5073374;28;20488;-55
2023/04/10 02:30:02;;;;;;;30.43;22.93;;;;;;;;;;5072233;28;20491;-54
2023/04/10 02:32:28;;;;;;;29.77;22.90;;;;;;;;;;5073296;28;20565;-54
2023/04/10 02:34:55;;;;;;;30.20;23.03;;;;;;;;;;5073133;28;20545;-54
2023/04/10 02:37:21;;;;;;;31.13;23.03;;;;;;;;;;5073310;28;20442;-55
2023/04/10 02:39:48;;;;;;;31.93;23.20;;;;;;;;;;5073113;28;20483;-55
2023/04/10 02:42:15;;;;;;;31.13;23.80;;;;;;;;;;5073165;28;20473;-54
2023/04/10 02:44:41;;;;;;;34.60;24.30;;;;;;;;;;5073032;28;20219;-55
2023/04/10 02:47:07;;;;;;;31.53;24.30;;;;;;;;;;5073076;28;20533;-54
2023/04/10 02:49:36;;;;;;;30.77;24.33;;;;;;;;;;5073055;28;20516;-54
2023/04/10 02:52:05;;;;;;;32.87;23.80;;;;;;;;;;5070977;28;20517;-55
2023/04/10 02:54:31;;;;;;;29.63;22.90;;;;;;;;;;5072923;28;20426;-55
2023/04/10 02:56:59;;;;;;;28.83;24.27;;;;;;;;;;5072791;28;20473;-55
2023/04/10 02:59:25;;;;;;;35.47;25.47;;;;;;;;;;5072867;28;20204;-55
2023/04/10 03:01:51;;;;;;;33.33;26.37;;;;;;;;;;5072427;28;20543;-55
2023/04/10 03:04:18;;;;;;;31.10;24.73;;;;;;;;;;5072403;28;20437;-56
2023/04/10 03:06:44;;;;;;;30.50;24.07;;;;;;;;;;5072536;28;20464;-55
2023/04/10 03:09:10;;;;;;;29.53;23.53;;;;;;;;;;5072546;28;20916;-55
2023/04/10 03:11:36;;;;;;;31.97;23.10;;;;;;;;;;5072462;28;20465;-55
2023/04/10 03:14:03;;;;;;;28.07;22.67;;;;;;;;;;5072431;28;20449;-55
2023/04/10 03:16:30;;;;;;;28.50;22.47;;;;;;;;;;5072568;28;20448;-55
2023/04/10 03:18:56;;;;;;;28.07;22.33;;;;;;;;;;5072382;28;20437;-55
2023/04/10 03:21:22;;;;;;;30.50;23.83;;;;;;;;;;5072030;28;20603;-55
2023/04/10 03:23:48;;;;;;;32.57;24.27;;;;;;;;;;5072084;28;20936;-55
2023/04/10 03:26:14;;;;;;;30.40;24.33;;;;;;;;;;5072366;28;20446;-55
2023/04/10 03:28:40;;;;;;;30.73;23.70;;;;;;;;;;5072217;28;20199;-55
2023/04/10 03:31:08;;;;;;;29.60;22.90;;;;;;;;;;5072117;28;20495;-55
2023/04/10 03:33:34;;;;;;;32.97;24.30;;;;;;;;;;5071987;28;20485;-55
2023/04/10 03:36:00;;;;;;;30.70;23.40;;;;;;;;;;5072011;28;20445;-55
2023/04/10 03:38:26;;;;;;;29.97;24.13;;;;;;;;;;5071926;28;20797;-55
2023/04/10 03:40:52;;;;;;;30.80;23.83;;;;;;;;;;5071463;28;20434;-55
2023/04/10 03:43:19;;;;;;;29.47;23.60;;;;;;;;;;5072040;28;20203;-55
2023/04/10 03:45:46;;;;;;;27.97;22.53;;;;;;;;;;5071953;28;20529;-55
2023/04/10 03:48:13;;;;;;;30.27;22.63;;;;;;;;;;5071877;28;20436;-55
2023/04/10 03:50:39;;;;;;;33.10;25.27;;;;;;;;;;5071341;28;20446;-55
2023/04/10 03:53:05;;;;;;;31.33;23.67;;;;;;;;;;5070580;28;20661;-55
2023/04/10 03:55:31;;;;;;;28.63;22.57;;;;;;;;;;5070955;28;21000;-56
2023/04/10 03:57:57;;;;;;;28.50;22.60;;;;;;;;;;5071498;28;20242;-55
2023/04/10 04:00:24;;;;;;;29.20;22.73;;;;;;;;;;5071609;28;20438;-56
2023/04/10 04:02:51;;;;;;;26.90;22.63;;;;;;;;;;5071253;28;20227;-55
2023/04/10 04:05:18;;;;;;;31.07;23.07;;;;;;;;;;5071581;28;20503;-55
2023/04/10 04:07:44;;;;;;;31.67;23.83;;;;;;;;;;5071669;28;20491;-55
2023/04/10 04:10:10;;;;;;;27.93;23.07;;;;;;;;;;5071663;28;20442;-55
2023/04/10 04:12:36;;;;;;;32.00;23.77;;;;;;;;;;5071625;28;20879;-55
2023/04/10 04:15:02;;;;;;;31.47;23.23;;;;;;;;;;5071499;28;20300;-55
2023/04/10 04:17:28;;;;;;;30.97;23.43;;;;;;;;;;5071481;28;20192;-55
2023/04/10 04:19:54;;;;;;;31.23;22.97;;;;;;;;;;5071229;28;20460;-55
2023/04/10 04:22:21;;;;;;;29.20;23.80;;;;;;;;;;5071574;28;20223;-55
2023/04/10 04:24:47;;;;;;;30.30;22.83;;;;;;;;;;5071297;28;20199;-55
2023/04/10 04:27:13;;;;;;;28.17;22.67;;;;;;;;;;5071592;28;20453;-55
2023/04/10 04:29:39;;;;;;;28.60;22.40;;;;;;;;;;5071559;28;20195;-55
2023/04/10 04:32:05;;;;;;;28.53;22.80;;;;;;;;;;5071067;28;20262;-55
2023/04/10 04:34:32;;;;;;;29.10;22.30;;;;;;;;;;5071470;28;20202;-55
2023/04/10 04:36:58;;;;;;;29.07;22.73;;;;;;;;;;5071179;28;20437;-55
2023/04/10 04:39:25;;;;;;;31.17;23.73;;;;;;;;;;5071345;28;20434;-55
2023/04/10 04:41:51;;;;;;;32.07;22.63;;;;;;;;;;5070976;28;20470;-54
2023/04/10 04:44:18;;;;;;;27.43;21.93;;;;;;;;;;5071256;28;20943;-55
2023/04/10 04:46:44;;;;;;;29.83;22.63;;;;;;;;;;5071105;28;20204;-55
2023/04/10 04:49:10;;;;;;;27.57;22.17;;;;;;;;;;5071472;28;20430;-54
2023/04/10 04:51:37;;;;;;;28.17;22.13;;;;;;;;;;5071255;28;20454;-54
2023/04/10 04:54:03;;;;;;;27.77;20.53;;;;;;;;;;5074576;28;20436;-54
2023/04/10 04:56:30;;;;;;;26.33;21.43;;;;;;;;;;5075280;28;20453;-54
2023/04/10 04:58:56;;;;;;;23.63;19.23;;;;;;;;;;5074931;28;20445;-55
2023/04/10 05:01:22;;;;;;;26.03;20.53;;;;;;;;;;5074784;28;20536;-55
2023/04/10 05:03:48;;;;;;;25.67;20.43;;;;;;;;;;5074696;28;20336;-55
2023/04/10 05:06:14;;;;;;;27.20;21.33;;;;;;;;;;5074537;28;20252;-54
2023/04/10 05:08:40;;;;;;;24.63;21.10;;;;;;;;;;5075079;28;20487;-56
2023/04/10 05:11:06;;;;;;;26.57;20.67;;;;;;;;;;5074715;28;20479;-54
2023/04/10 05:13:34;;;;;;;26.77;21.10;;;;;;;;;;5074886;28;20279;-54
2023/04/10 05:16:00;;;;;;;25.87;20.57;;;;;;;;;;5074780;28;20438;-54
2023/04/10 05:18:26;;;;;;;26.63;20.67;;;;;;;;;;5074634;28;20199;-54
2023/04/10 05:20:52;;;;;;;25.53;21.10;;;;;;;;;;5074461;28;20536;-54
2023/04/10 05:23:18;;;;;;;26.03;20.80;;;;;;;;;;5074520;28;20484;-55
2023/04/10 05:25:44;;;;;;;26.63;20.80;;;;;;;;;;5074597;28;20441;-55
2023/04/10 05:28:10;;;;;;;26.43;19.90;;;;;;;;;;5074499;28;20677;-55
2023/04/10 05:30:37;;;;;;;25.63;20.53;;;;;;;;;;5074555;28;20195;-55
2023/04/10 05:33:03;;;;;;;25.57;20.20;;;;;;;;;;5074284;28;20476;-55
2023/04/10 05:35:29;;;;;;;27.63;20.23;;;;;;;;;;5074317;28;20842;-55
2023/04/10 05:37:55;;;;;;;26.13;20.50;;;;;;;;;;5074304;28;21007;-55
2023/04/10 05:40:21;;;;;;;25.10;20.73;;;;;;;;;;5074383;28;20203;-55
2023/04/10 05:42:47;;;;;;;25.50;20.17;;;;;;;;;;5074322;28;20258;-55
2023/04/10 05:45:15;;;;;;;24.63;20.20;;;;;;;;;;5074499;28;20687;-55
2023/04/10 05:47:42;;;;;;;24.67;19.77;;;;;;;;;;5072987;28;20677;-54
2023/04/10 05:50:09;;;;;;;23.10;19.97;;;;;;;;;;5073931;28;21009;-54
2023/04/10 05:52:35;;;;;;;26.13;20.03;;;;;;;;;;5074129;28;20467;-54
2023/04/10 05:55:01;;;;;;;24.10;19.20;;;;;;;;;;5073716;28;20469;-54
2023/04/10 05:57:28;;;;;;;24.20;19.93;;;;;;;;;;5074070;28;20620;-55
2023/04/10 05:59:54;;;;;;;27.30;20.40;;;;;;;;;;5073864;28;20445;-54
2023/04/10 06:02:20;;;;;;;23.30;19.63;;;;;;;;;;5073950;28;20474;-54
2023/04/10 06:04:48;;;;;;;22.83;18.37;;;;;;;;;;5073845;28;20480;-53
2023/04/10 06:07:14;;;;;;;23.97;19.70;;;;;;;;;;5073914;28;20204;-55
2023/04/10 06:09:40;;;;;;;21.67;18.23;;;;;;;;;;5071564;28;20495;-54
2023/04/10 06:12:06;;;;;;;21.30;18.20;;;;;;;;;;5073639;28;20234;-54
2023/04/10 06:14:32;;;;;;;24.17;18.37;;;;;;;;;;5073773;28;20573;-54
2023/04/10 06:16:58;;;;;;;21.27;17.73;;;;;;;;;;5073507;28;20650;-54
2023/04/10 06:19:24;;;;;;;23.10;19.27;;;;;;;;;;5073591;28;20508;-54
2023/04/10 06:21:51;;;;;;;23.70;18.43;;;;;;;;;;5073299;28;20247;-54
2023/04/10 06:24:17;;;;;;;23.53;18.47;;;;;;;;;;5073547;28;20223;-54
2023/04/10 06:26:43;;;;;;;23.67;18.57;;;;;;;;;;5073459;28;20932;-54
2023/04/10 06:29:09;;;;;;;20.90;17.13;;;;;;;;;;5071971;28;20203;-54
2023/04/10 06:31:35;;;;;;;20.53;17.10;;;;;;;;;;5073213;28;20286;-55
2023/04/10 06:34:01;;;;;;;19.33;16.97;;;;;;;;;;5073185;28;20204;-53
2023/04/10 06:36:27;;;;;;;20.47;18.13;;;;;;;;;;5073396;28;20573;-53
2023/04/10 06:38:55;;;;;;;21.27;18.27;;;;;;;;;;5073154;28;20294;-54
2023/04/10 06:41:21;;;;;;;21.87;16.63;;;;;;;;;;5073114;28;20839;-53
2023/04/10 06:43:47;;;;;;;18.90;16.77;;;;;;;;;;5073122;28;20211;-53
2023/04/10 06:46:14;;;;;;;19.33;16.60;;;;;;;;;;5073171;28;20560;-53
2023/04/10 06:48:40;;;;;;;18.10;15.70;;;;;;;;;;5073835;28;20203;-54
2023/04/10 06:51:07;;;;;;;19.07;15.83;;;;;;;;;;5073141;28;20282;-53
2023/04/10 06:53:33;;;;;;;19.10;16.23;;;;;;;;;;5073024;28;20192;-53
2023/04/10 06:56:01;;;;;;;19.57;15.40;;;;;;;;;;5072783;28;20682;-54
2023/04/10 06:58:28;;;;;;;19.50;16.93;;;;;;;;;;5072904;28;20203;-53
2023/04/10 07:00:54;;;;;;;19.27;16.33;;;;;;;;;;5072681;28;20249;-53
2023/04/10 07:03:20;;;;;;;17.50;15.67;;;;;;;;;;5072683;28;20310;-53
2023/04/10 07:05:46;;;;;;;18.57;15.50;;;;;;;;;;5072314;28;20748;-53
2023/04/10 07:08:12;;;;;;;17.83;14.83;;;;;;;;;;5072524;28;20199;-53
2023/04/10 07:10:38;;;;;;;17.33;14.47;;;;;;;;;;5072537;28;20188;-54
2023/04/10 07:13:05;;;;;;;17.00;14.70;;;;;;;;;;5072465;28;20249;-54
2023/04/10 07:15:31;;;;;;;16.57;14.43;;;;;;;;;;5072095;28;20249;-54
2023/04/10 07:17:57;;;;;;;16.20;14.30;;;;;;;;;;5072528;28;20207;-53
2023/04/10 07:20:23;;;;;;;17.37;14.30;;;;;;;;;;5072424;28;20206;-54
2023/04/10 07:22:49;;;;;;;17.37;15.03;;;;;;;;;;5072200;28;20567;-54
2023/04/10 07:25:17;;;;;;;15.70;14.10;;;;;;;;;;5072237;28;20249;-54
2023/04/10 07:27:43;;;;;;;16.07;14.47;;;;;;;;;;5072275;28;20245;-55
2023/04/10 07:30:10;;;;;;;15.87;14.27;;;;;;;;;;5072204;28;20553;-54
2023/04/10 07:32:38;;;;;;;15.87;14.17;;;;;;;;;;5072081;28;20307;-54
2023/04/10 07:35:05;;;;;;;15.63;13.90;;;;;;;;;;5071667;28;20257;-54
2023/04/10 07:37:31;;;;;;;13.97;12.57;;;;;;;;;;5071821;28;20195;-55
2023/04/10 07:39:57;;;;;;;18.97;12.83;;;;;;;;;;5072042;28;20198;-55
2023/04/10 07:42:23;;;;;;;14.50;13.10;;;;;;;;;;5069780;28;20231;-55
2023/04/10 07:44:49;;;;;;;14.50;12.60;;;;;;;;;;5071957;28;20219;-53
2023/04/10 07:47:16;;;;;;;13.37;11.60;;;;;;;;;;5071688;28;20204;-55
2023/04/10 07:49:42;;;;;;;14.60;12.50;;;;;;;;;;5071949;28;20283;-55
2023/04/10 07:52:08;;;;;;;13.03;11.37;;;;;;;;;;5071681;28;20278;-55
2023/04/10 07:54:36;;;;;;;13.33;11.53;;;;;;;;;;5071827;28;20689;-55
2023/04/10 07:57:02;;;;;;;13.37;11.97;;;;;;;;;;5071566;28;20693;-55
2023/04/10 07:59:28;;;;;;;12.63;11.33;;;;;;;;;;5071923;28;20208;-55
2023/04/10 08:01:54;;;;;;;12.80;11.50;;;;;;;;;;5071521;28;20303;-55
2023/04/10 08:04:21;;;;;;;12.77;11.47;;;;;;;;;;5071720;28;20281;-55
2023/04/10 08:06:48;;;;;;;12.43;11.13;;;;;;;;;;5071590;28;20203;-56
2023/04/10 08:09:14;;;;;;;13.07;11.67;;;;;;;;;;5071656;28;20226;-55
2023/04/10 08:11:40;;;;;;;12.97;11.47;;;;;;;;;;5071516;28;20202;-56
2023/04/10 08:14:06;;;;;;;11.93;10.73;;;;;;;;;;5071373;28;20207;-56
2023/04/10 08:16:33;;;;;;;12.33;11.03;;;;;;;;;;5071522;28;20286;-56
2023/04/10 08:19:00;;;;;;;11.87;10.67;;;;;;;;;;5071361;28;20207;-56
2023/04/10 08:21:28;;;;;;;11.73;10.63;;;;;;;;;;5071345;28;20235;-54
2023/04/10 08:23:54;;;;;;;10.97;9.87;;;;;;;;;;5071271;28;20620;-54
2023/04/10 08:26:20;;;;;;;11.03;10.03;;;;;;;;;;5071222;28;20207;-55
2023/04/10 08:28:48;;;;;;;11.93;10.73;;;;;;;;;;5074522;28;20203;-55
2023/04/10 08:31:14;;;;;;;11.90;10.70;;;;;;;;;;5075646;28;20207;-55
2023/04/10 08:33:40;;;;;;;11.40;10.20;;;;;;;;;;5075218;28;20285;-55
2023/04/10 08:36:06;;;;;;;10.87;9.83;;;;;;;;;;5075332;28;20627;-55
2023/04/10 08:38:34;;;;;;;11.57;10.37;;;;;;;;;;5075382;28;20226;-55
2023/04/10 08:41:00;;;;;;;10.20;9.20;;;;;;;;;;5075304;28;20199;-56
2023/04/10 08:43:26;;;;;;;10.80;9.73;;;;;;;;;;5075124;28;20856;-55
2023/04/10 08:45:52;;;;;;;11.30;10.13;;;;;;;;;;5075279;28;20195;-55
2023/04/10 08:48:21;;;;;;;10.50;9.50;;;;;;;;;;5075143;28;20207;-56
2023/04/10 08:50:49;;;;;;;10.57;9.47;;;;;;;;;;5074921;28;20631;-56
2023/04/10 08:53:15;;;;;;;10.77;9.10;;;;;;;;;;5075127;28;20675;-55
2023/04/10 08:55:43;;;;;;;10.00;9.00;;;;;;;;;;5075033;28;20203;-55
2023/04/10 08:58:12;;;;;;;10.80;8.47;;;;;;;;;;5074892;28;20203;-54
2023/04/10 09:00:38;;;;;;;9.77;8.57;;;;;;;;;;5074921;28;20203;-54
2023/04/10 09:03:07;;;;;;;8.90;8.00;;;;;;;;;;5074761;28;20215;-54
2023/04/10 09:05:35;;;;;;;9.03;8.13;;;;;;;;;;5074967;28;20200;-55
2023/04/10 09:08:04;;;;;;;9.53;8.50;;;;;;;;;;5074973;28;20278;-57
2023/04/10 09:10:30;;;;;;;9.37;8.40;;;;;;;;;;5074866;28;20654;-55
2023/04/10 09:12:58;;;;;;;9.37;8.43;;;;;;;;;;5074578;28;20735;-56
2023/04/10 09:15:24;;;;;;;8.67;7.83;;;;;;;;;;5074629;28;20604;-54
2023/04/10 09:17:57;;;;;;;9.77;8.77;;;;;;;;;;5074518;28;20195;-54
2023/04/10 09:20:24;;;;;;;9.70;8.80;;;;;;;;;;5074650;28;20207;-55
2023/04/10 09:22:50;;;;;;;9.27;8.37;;;;;;;;;;5074423;28;20652;-55
2023/04/10 09:25:30;;;;;;;10.30;9.30;;;;;;;;;;5074866;28;20223;-55
2023/04/10 09:28:00;;;;;;;9.27;8.37;;;;;;;;;;5074781;28;20394;-55
2023/04/10 09:30:33;;;;;;;9.80;8.60;;;;;;;;;;5074633;28;20208;-56
2023/04/10 09:32:59;;;;;;;9.87;8.43;;;;;;;;;;5074224;28;20227;-54
2023/04/10 09:35:35;;;;;;;9.13;8.33;;;;;;;;;;5074657;28;20195;-55
2023/04/10 09:38:01;;;;;;;8.70;7.80;;;;;;;;;;5074055;28;20245;-55
2023/04/10 09:40:27;;;;;;;10.10;9.10;;;;;;;;;;5074576;28;20200;-55
2023/04/10 09:42:57;;;;;;;9.20;8.30;;;;;;;;;;5074268;28;20220;-55
2023/04/10 09:45:24;;;;;;;10.30;9.03;;;;;;;;;;5074256;28;20214;-55
2023/04/10 09:48:01;;;;;;;9.53;8.63;;;;;;;;;;5074312;28;20665;-55
2023/04/10 09:50:33;;;;;;;10.07;9.07;;;;;;;;;;5074312;28;20206;-54
2023/04/10 09:52:59;;;;;;;10.47;9.43;;;;;;;;;;5074377;28;20196;-55
2023/04/10 09:55:25;;;;;;;10.03;9.03;;;;;;;;;;5074192;28;20912;-56
2023/04/10 09:57:51;;;;;;;9.27;8.37;;;;;;;;;;5074190;28;20203;-56
2023/04/10 10:00:27;;;;;;;9.30;8.40;;;;;;;;;;5073968;28;20665;-54
2023/04/10 10:02:55;;;;;;;9.50;8.60;;;;;;;;;;5072057;28;20246;-55
2023/04/10 10:05:22;;;;;;;9.40;8.53;;;;;;;;;;5073859;28;20200;-55
2023/04/10 10:07:49;;;;;;;9.07;8.27;;;;;;;;;;5073928;28;20574;-55
2023/04/10 10:10:15;;;;;;;8.87;8.07;;;;;;;;;;5073770;28;20299;-56
2023/04/10 10:12:43;;;;;;;8.43;7.63;;;;;;;;;;5073637;28;20622;-56
2023/04/10 10:15:11;;;;;;;9.33;8.43;;;;;;;;;;5071780;28;20206;-54
2023/04/10 10:17:40;;;;;;;8.40;7.53;;;;;;;;;;5073605;28;20199;-55
2023/04/10 10:20:10;;;;;;;8.63;7.83;;;;;;;;;;5073438;28;20203;-54
2023/04/10 10:22:36;;;;;;;8.23;7.43;;;;;;;;;;5073481;28;20766;-55
2023/04/10 10:25:02;;;;;;;8.37;7.67;;;;;;;;;;5073415;28;20196;-55
2023/04/10 10:27:31;;;;;;;8.07;7.33;;;;;;;;;;5073632;28;20265;-55
2023/04/10 10:29:59;;;;;;;8.83;8.03;;;;;;;;;;5073231;28;20669;-54
2023/04/10 10:32:26;;;;;;;9.10;8.20;;;;;;;;;;5073123;28;20232;-59
2023/04/10 10:34:52;;;;;;;8.43;7.60;;;;;;;;;;5072452;28;20256;-55
2023/04/10 10:37:20;;;;;;;9.87;7.27;;;;;;;;;;5072968;28;20204;-55
2023/04/10 10:39:49;;;;;;;7.70;7.00;;;;;;;;;;5069508;28;20329;-56
2023/04/10 10:42:20;;;;;;;7.30;6.70;;;;;;;;;;5071276;28;20603;-55
2023/04/10 10:44:48;;;;;;;6.93;6.23;;;;;;;;;;5073066;28;20195;-55
2023/04/10 10:47:16;;;;;;;6.93;6.33;;;;;;;;;;5072900;28;20234;-54
2023/04/10 10:49:55;;;;;;;6.93;6.33;;;;;;;;;;5072376;28;20458;-55
2023/04/10 10:52:43;;;;;;;7.03;6.33;;;;;;;;;;5072612;28;20192;-55
2023/04/10 10:55:38;;;;;;;8.67;5.97;;;;;;;;;;5072594;28;20194;-55
2023/04/10 10:58:05;;;;;;;8.57;7.13;;;;;;;;;;5072537;28;20204;-56
2023/04/10 11:00:50;;;;;;;7.37;6.37;;;;;;;;;;5070853;28;20195;-56
2023/04/10 11:03:28;;;;;;;6.97;6.37;;;;;;;;;;5072555;28;20749;-55
2023/04/10 11:05:55;;;;;;;7.23;6.40;;;;;;;;;;5072399;28;20252;-55
2023/04/10 11:08:34;;;;;;;6.40;5.80;;;;;;;;;;5070488;28;20554;-55
2023/04/10 11:11:05;;;;;;;7.60;6.30;;;;;;;;;;5072429;28;20199;-57
2023/04/10 11:13:32;;;;;;;7.00;6.33;;;;;;;;;;5072332;28;20574;-55
2023/04/10 11:15:59;;;;;;;6.83;6.13;;;;;;;;;;5072282;28;20233;-56
2023/04/10 11:18:40;;;;;;;6.23;5.63;;;;;;;;;;5072315;28;20195;-55
2023/04/10 11:21:10;;;;;;;6.40;5.80;;;;;;;;;;5071991;28;20214;-55
2023/04/10 11:23:36;;;;;;;10.57;5.47;;;;;;;;;;5072059;28;20823;-55
2023/04/10 11:26:05;;;;;;;6.20;5.60;;;;;;;;;;5072143;28;20249;-56
2023/04/10 11:28:34;;;;;;;6.37;5.77;;;;;;;;;;5072150;28;20207;-55
2023/04/10 11:31:14;;;;;;;6.00;5.47;;;;;;;;;;5072056;28;20207;-57
2023/04/10 11:33:40;;;;;;;6.60;6.00;;;;;;;;;;5071778;28;20314;-55
2023/04/10 11:36:07;;;;;;;6.00;5.50;;;;;;;;;;5071824;28;20211;-57
2023/04/10 11:38:33;;;;;;;6.10;5.60;;;;;;;;;;5071973;28;20204;-56
2023/04/10 11:41:02;;;;;;;6.20;5.60;;;;;;;;;;5071855;28;20208;-55
2023/04/10 11:43:31;;;;;;;6.57;5.97;;;;;;;;;;5071804;28;20269;-57
2023/04/10 11:46:01;;;;;;;6.10;5.50;;;;;;;;;;5071708;28;20682;-56
2023/04/10 11:48:28;;;;;;;6.20;5.60;;;;;;;;;;5071766;28;20192;-55
2023/04/10 11:50:54;;;;;;;5.90;5.40;;;;;;;;;;5071707;28;20227;-55
2023/04/10 11:53:20;;;;;;;6.40;5.80;;;;;;;;;;5071545;28;20282;-57
2023/04/10 11:55:46;;;;;;;6.47;5.87;;;;;;;;;;5071710;28;20223;-57
2023/04/10 11:58:22;;;;;;;6.33;5.73;;;;;;;;;;5071633;28;20199;-56
2023/04/10 12:00:56;;;;;;;6.53;5.93;;;;;;;;;;5071790;28;20198;-58
2023/04/10 12:03:30;;;;;;;6.47;5.57;;;;;;;;;;5071228;28;20232;-55
2023/04/10 12:05:56;;;;;;;9.30;5.70;;;;;;;;;;5071522;28;20211;-56
2023/04/10 12:08:29;;;;;;;6.17;5.57;;;;;;;;;;5071472;28;20274;-57
2023/04/10 12:10:55;;;;;;;6.10;5.50;;;;;;;;;;5071472;28;20707;-56
2023/04/10 12:13:24;;;;;;;5.93;5.43;;;;;;;;;;5071471;28;20192;-57
2023/04/10 12:15:51;;;;;;;5.87;5.20;;;;;;;;;;5071329;28;20729;-57
2023/04/10 12:18:18;;;;;;;6.93;5.83;;;;;;;;;;5071367;28;20203;-57
2023/04/10 12:20:44;;;;;;;6.43;5.50;;;;;;;;;;5071455;28;20658;-57
2023/04/10 12:23:10;;;;;;;5.30;4.80;;;;;;;;;;5071205;28;20237;-57
2023/04/10 12:25:36;;;;;;;5.97;4.90;;;;;;;;;;5071121;28;20199;-56
2023/04/10 12:28:02;;;;;;;5.50;4.93;;;;;;;;;;5071278;28;20751;-56
2023/04/10 12:30:28;;;;;;;5.30;4.80;;;;;;;;;;5071483;28;20205;-56
2023/04/10 12:32:55;;;;;;;5.73;5.23;;;;;;;;;;5070836;28;20688;-56
2023/04/10 12:35:36;;;;;;;5.50;5.00;;;;;;;;;;5071198;28;20532;-56
2023/04/10 12:38:02;;;;;;;5.70;4.93;;;;;;;;;;5071257;28;20286;-56
2023/04/10 12:40:28;;;;;;;5.53;5.03;;;;;;;;;;5071444;28;20677;-56
2023/04/10 12:42:55;;;;;;;5.07;4.43;;;;;;;;;;5071109;28;20302;-57
2023/04/10 12:45:21;;;;;;;6.73;5.20;;;;;;;;;;5071138;28;20356;-57
2023/04/10 12:47:50;;;;;;;5.17;4.63;;;;;;;;;;5071247;28;20199;-57
2023/04/10 12:50:16;;;;;;;5.20;4.70;;;;;;;;;;5071156;28;20583;-56
2023/04/10 12:52:45;;;;;;;5.27;4.77;;;;;;;;;;5071160;28;20689;-56
2023/04/10 12:55:12;;;;;;;5.23;4.73;;;;;;;;;;5070960;28;20264;-57
2023/04/10 12:57:38;;;;;;;5.20;4.70;;;;;;;;;;5070940;28;20702;-56
2023/04/10 13:00:04;;;;;;;5.30;4.80;;;;;;;;;;5070983;28;20611;-57
2023/04/10 13:02:30;;;;;;;5.30;4.70;;;;;;;;;;5071085;28;20322;-57
2023/04/10 13:04:56;;;;;;;4.77;4.30;;;;;;;;;;5070824;28;20290;-57
2023/04/10 13:07:22;;;;;;;5.53;4.80;;;;;;;;;;5071072;28;20254;-57
2023/04/10 13:09:49;;;;;;;4.50;4.10;;;;;;;;;;5070928;28;20245;-57
2023/04/10 13:12:15;;;;;;;4.60;4.20;;;;;;;;;;5070925;28;20188;-56
2023/04/10 13:14:41;;;;;;;4.00;3.70;;;;;;;;;;5073656;28;20191;-56
2023/04/10 13:17:07;;;;;;;4.23;3.83;;;;;;;;;;5074561;28;20588;-56
2023/04/10 13:19:33;;;;;;;4.70;3.97;;;;;;;;;;5074515;28;20278;-56
2023/04/10 13:22:00;;;;;;;4.40;4.00;;;;;;;;;;5074555;28;20610;-56
2023/04/10 13:24:26;;;;;;;4.47;4.07;;;;;;;;;;5074404;28;20199;-56
2023/04/10 13:26:53;;;;;;;4.57;4.17;;;;;;;;;;5074360;28;20192;-56
2023/04/10 13:29:19;;;;;;;4.43;4.03;;;;;;;;;;5074295;28;20200;-58
2023/04/10 13:31:45;;;;;;;4.37;3.97;;;;;;;;;;5074328;28;20664;-57
2023/04/10 13:34:11;;;;;;;4.30;3.90;;;;;;;;;;5074251;28;20245;-57
2023/04/10 13:36:37;;;;;;;5.67;4.10;;;;;;;;;;5074329;28;20235;-57
2023/04/10 13:39:03;;;;;;;4.53;4.13;;;;;;;;;;5074108;28;20196;-57
2023/04/10 13:41:29;;;;;;;4.97;4.10;;;;;;;;;;5074461;28;20275;-57
2023/04/10 13:43:56;;;;;;;3.70;3.40;;;;;;;;;;5074057;28;20784;-57
2023/04/10 13:46:22;;;;;;;3.63;3.33;;;;;;;;;;5074244;28;20203;-57
2023/04/10 13:48:48;;;;;;;4.07;3.67;;;;;;;;;;5073994;28;20208;-57
2023/04/10 13:51:14;;;;;;;3.90;3.53;;;;;;;;;;5074032;28;20682;-57
2023/04/10 13:53:40;;;;;;;3.63;3.33;;;;;;;;;;5073912;28;20547;-57
2023/04/10 13:56:07;;;;;;;3.60;3.30;;;;;;;;;;5073740;28;20274;-56
2023/04/10 13:58:33;;;;;;;3.27;2.97;;;;;;;;;;5073752;28;20673;-56
2023/04/10 14:01:00;;;;;;;4.33;3.13;;;;;;;;;;5073851;28;20200;-57
2023/04/10 14:03:26;;;;;;;3.97;3.47;;;;;;;;;;5073800;28;20229;-56
2023/04/10 14:05:52;;;;;;;4.37;3.53;;;;;;;;;;5073773;28;20247;-56
2023/04/10 14:08:18;;;;;;;4.00;3.50;;;;;;;;;;5073569;28;20692;-56
2023/04/10 14:10:47;;;;;;;3.27;3.07;;;;;;;;;;5073863;28;20286;-56
2023/04/10 14:13:13;;;;;;;3.60;3.30;;;;;;;;;;5073707;28;20249;-57
2023/04/10 14:15:39;;;;;;;3.70;3.40;;;;;;;;;;5073650;28;20204;-57
2023/04/10 14:18:07;;;;;;;3.43;3.13;;;;;;;;;;5073415;28;20252;-57
2023/04/10 14:20:32;;;;;;;3.90;3.60;;;;;;;;;;5073632;28;20208;-56
2023/04/10 14:22:58;;;;;;;3.80;3.43;;;;;;;;;;5073478;28;20234;-56
2023/04/10 14:25:24;;;;;;;4.33;3.90;;;;;;;;;;5072125;28;20559;-58
2023/04/10 14:27:50;;;;;;;3.87;3.47;;;;;;;;;;5073305;28;20200;-57